Time;durP1;ratioP1;P1;durP2;ratioP2;P2;SDS_P1;SDS_P2;PMS_P1;PMS_P2;Temp;Humidity;BMP_temperature;BMP_pressure;BME280_temperature;BME280_humidity;BME280_pressure;Samples;Min_cycle;Max_cycle;Signal;HPM_P1;HPM_P2
2022/09/28 00:02:26;;;;;;;4.63;1.43;;;;;;;;;;5067665;28;20222;-63
2022/09/28 00:04:54;;;;;;;1.40;1.20;;;;;;;;;;5070448;28;20252;-63
2022/09/28 00:07:22;;;;;;;1.60;1.33;;;;;;;;;;5067986;28;20202;-63
2022/09/28 00:09:52;;;;;;;2.03;1.10;;;;;;;;;;5075577;28;20202;-63
2022/09/28 00:12:20;;;;;;;3.70;1.20;;;;;;;;;;5065000;28;20227;-63
2022/09/28 00:14:48;;;;;;;2.93;1.27;;;;;;;;;;5071784;28;20224;-62
2022/09/28 00:17:21;;;;;;;2.90;1.30;;;;;;;;;;5070855;28;20207;-62
2022/09/28 00:19:49;;;;;;;1.70;1.00;;;;;;;;;;5064320;28;20262;-63
2022/09/28 00:22:17;;;;;;;4.93;1.10;;;;;;;;;;5077328;28;20200;-63
2022/09/28 00:24:45;;;;;;;2.33;1.20;;;;;;;;;;5062847;28;20215;-63
2022/09/28 00:27:14;;;;;;;5.43;1.57;;;;;;;;;;5068930;28;20213;-63
2022/09/28 00:29:42;;;;;;;2.43;1.10;;;;;;;;;;5065620;28;20202;-63
2022/09/28 00:32:11;;;;;;;2.13;1.23;;;;;;;;;;5070857;28;20721;-63
2022/09/28 00:34:41;;;;;;;1.73;0.90;;;;;;;;;;5071459;28;20229;-63
2022/09/28 00:37:09;;;;;;;4.53;1.00;;;;;;;;;;5062168;28;20573;-63
2022/09/28 00:39:40;;;;;;;2.33;1.17;;;;;;;;;;5059675;28;20203;-63
2022/09/28 00:42:12;;;;;;;6.73;1.57;;;;;;;;;;5075629;28;20252;-62
2022/09/28 00:44:43;;;;;;;2.13;1.20;;;;;;;;;;5072377;28;20220;-63
2022/09/28 00:47:18;;;;;;;1.40;1.00;;;;;;;;;;5070344;28;20306;-62
2022/09/28 00:49:48;;;;;;;3.43;0.97;;;;;;;;;;5059896;28;20281;-63
2022/09/28 00:52:18;;;;;;;3.93;0.87;;;;;;;;;;5067479;28;20585;-63
2022/09/28 00:54:47;;;;;;;1.20;1.10;;;;;;;;;;5067044;28;20225;-64
2022/09/28 00:57:15;;;;;;;2.93;1.43;;;;;;;;;;5067847;28;20194;-63
2022/09/28 00:59:45;;;;;;;2.43;1.00;;;;;;;;;;5066119;28;20207;-64
2022/09/28 01:02:13;;;;;;;1.83;1.20;;;;;;;;;;5075690;28;20202;-63
2022/09/28 01:04:41;;;;;;;3.10;1.20;;;;;;;;;;5063548;28;20232;-63
2022/09/28 01:07:10;;;;;;;4.27;1.20;;;;;;;;;;5079089;28;20207;-63
2022/09/28 01:09:39;;;;;;;5.77;1.40;;;;;;;;;;5061173;28;20213;-63
2022/09/28 01:12:07;;;;;;;1.77;1.40;;;;;;;;;;5077832;28;20233;-63
2022/09/28 01:14:35;;;;;;;4.23;1.40;;;;;;;;;;5058995;28;20233;-62
2022/09/28 01:17:08;;;;;;;4.40;1.30;;;;;;;;;;5067281;28;20209;-63
2022/09/28 01:19:54;;;;;;;1.87;1.00;;;;;;;;;;5059205;28;20697;-63
2022/09/28 01:22:28;;;;;;;2.50;1.10;;;;;;;;;;5076119;28;20213;-63
2022/09/28 01:24:58;;;;;;;3.90;1.50;;;;;;;;;;5065205;28;20218;-63
2022/09/28 01:27:28;;;;;;;2.50;1.03;;;;;;;;;;5060871;28;20281;-63
2022/09/28 01:30:00;;;;;;;2.10;1.37;;;;;;;;;;5059210;28;20203;-62
2022/09/28 01:32:34;;;;;;;2.33;1.40;;;;;;;;;;5059842;28;20223;-63
2022/09/28 01:35:05;;;;;;;4.43;1.30;;;;;;;;;;5072274;28;20221;-63
2022/09/28 01:37:37;;;;;;;2.80;1.00;;;;;;;;;;5068402;28;20614;-62
2022/09/28 01:40:07;;;;;;;3.07;1.17;;;;;;;;;;5072691;28;20206;-63
2022/09/28 01:42:38;;;;;;;2.40;1.23;;;;;;;;;;5066876;28;20206;-63
2022/09/28 01:45:09;;;;;;;1.47;1.00;;;;;;;;;;5065401;28;20214;-62
2022/09/28 01:47:39;;;;;;;1.37;0.83;;;;;;;;;;5077517;28;20206;-63
2022/09/28 01:50:09;;;;;;;1.63;1.17;;;;;;;;;;5077991;28;20566;-63
2022/09/28 01:52:41;;;;;;;2.57;1.13;;;;;;;;;;5075787;28;20228;-63
2022/09/28 01:55:11;;;;;;;4.70;1.10;;;;;;;;;;5071367;28;20694;-63
2022/09/28 01:57:43;;;;;;;2.23;1.10;;;;;;;;;;5059661;28;20207;-62
2022/09/28 02:00:13;;;;;;;2.97;1.40;;;;;;;;;;5066191;28;20198;-63
2022/09/28 02:02:43;;;;;;;2.53;1.17;;;;;;;;;;5066068;28;20685;-63
2022/09/28 02:05:14;;;;;;;1.93;0.93;;;;;;;;;;5072085;28;20224;-63
2022/09/28 02:07:44;;;;;;;3.20;1.03;;;;;;;;;;5076859;28;20225;-61
2022/09/28 02:10:14;;;;;;;1.10;0.97;;;;;;;;;;5069132;28;20198;-63
2022/09/28 02:12:46;;;;;;;4.07;1.13;;;;;;;;;;5067130;28;20222;-62
2022/09/28 02:15:17;;;;;;;1.33;0.70;;;;;;;;;;5058229;28;20223;-61
2022/09/28 02:17:46;;;;;;;2.43;0.80;;;;;;;;;;5065856;28;20217;-61
2022/09/28 02:20:14;;;;;;;1.90;1.20;;;;;;;;;;5065597;28;20207;-62
2022/09/28 02:22:44;;;;;;;3.33;1.10;;;;;;;;;;5073140;28;20662;-61
2022/09/28 02:25:15;;;;;;;2.30;0.80;;;;;;;;;;5065605;28;20222;-61
2022/09/28 02:27:48;;;;;;;1.10;0.90;;;;;;;;;;5066786;28;20206;-61
2022/09/28 02:30:17;;;;;;;1.00;0.87;;;;;;;;;;5070959;28;20209;-61
2022/09/28 02:32:46;;;;;;;1.83;0.90;;;;;;;;;;5066770;28;20305;-61
2022/09/28 02:35:15;;;;;;;2.73;0.93;;;;;;;;;;5071994;28;20233;-61
2022/09/28 02:37:44;;;;;;;2.90;0.90;;;;;;;;;;5066960;28;20212;-61
2022/09/28 02:40:13;;;;;;;0.90;0.90;;;;;;;;;;5068777;28;20212;-62
2022/09/28 02:42:47;;;;;;;1.93;1.53;;;;;;;;;;5068361;28;20221;-63
2022/09/28 02:45:20;;;;;;;1.10;0.80;;;;;;;;;;5061809;28;20697;-63
2022/09/28 02:47:56;;;;;;;1.13;0.87;;;;;;;;;;5068388;28;20202;-62
2022/09/28 02:50:30;;;;;;;0.87;0.80;;;;;;;;;;5071476;28;20202;-62
2022/09/28 02:53:16;;;;;;;2.27;1.10;;;;;;;;;;5059432;28;20236;-61
2022/09/28 02:55:52;;;;;;;1.17;0.80;;;;;;;;;;5067968;28;20234;-61
2022/09/28 02:58:26;;;;;;;2.07;0.90;;;;;;;;;;5076481;28;20228;-61
2022/09/28 03:00:57;;;;;;;1.87;1.43;;;;;;;;;;5059061;28;20207;-61
2022/09/28 03:03:29;;;;;;;1.23;1.03;;;;;;;;;;5059863;28;20223;-61
2022/09/28 03:06:00;;;;;;;1.80;0.90;;;;;;;;;;5065007;28;20210;-62
2022/09/28 03:08:29;;;;;;;2.60;0.90;;;;;;;;;;5059380;28;20198;-61
2022/09/28 03:10:59;;;;;;;2.23;0.73;;;;;;;;;;5058779;28;20585;-61
2022/09/28 03:13:28;;;;;;;2.83;1.00;;;;;;;;;;5061942;28;20249;-61
2022/09/28 03:16:07;;;;;;;3.90;0.97;;;;;;;;;;5068052;28;20211;-62
2022/09/28 03:18:35;;;;;;;3.27;1.20;;;;;;;;;;5068473;28;20220;-62
2022/09/28 03:21:03;;;;;;;1.50;1.00;;;;;;;;;;5066392;28;20236;-61
2022/09/28 03:23:31;;;;;;;4.80;1.10;;;;;;;;;;5063590;28;20293;-63
2022/09/28 03:25:59;;;;;;;2.43;1.07;;;;;;;;;;5065829;28;20224;-62
2022/09/28 03:28:29;;;;;;;1.50;0.70;;;;;;;;;;5063843;28;20655;-62
2022/09/28 03:30:57;;;;;;;4.90;1.27;;;;;;;;;;5058530;28;20199;-61
2022/09/28 03:33:25;;;;;;;2.90;1.00;;;;;;;;;;5064979;28;20600;-62
2022/09/28 03:35:53;;;;;;;2.07;0.90;;;;;;;;;;5057153;28;20574;-62
2022/09/28 03:38:21;;;;;;;1.77;1.17;;;;;;;;;;5064244;28;20210;-62
2022/09/28 03:40:52;;;;;;;2.63;1.00;;;;;;;;;;5072420;28;20198;-62
2022/09/28 03:43:20;;;;;;;1.83;1.00;;;;;;;;;;5057867;28;20258;-62
2022/09/28 03:45:53;;;;;;;2.13;0.90;;;;;;;;;;5065129;28;20211;-62
2022/09/28 03:48:23;;;;;;;1.60;0.97;;;;;;;;;;5064651;28;20615;-62
2022/09/28 03:50:57;;;;;;;2.53;0.93;;;;;;;;;;5065329;28;20710;-62
2022/09/28 03:53:25;;;;;;;1.63;0.80;;;;;;;;;;5058238;28;20218;-62
2022/09/28 03:55:53;;;;;;;2.50;0.90;;;;;;;;;;5069417;28;20229;-62
2022/09/28 03:58:21;;;;;;;1.70;1.00;;;;;;;;;;5064045;28;20208;-63
2022/09/28 04:00:49;;;;;;;1.37;1.03;;;;;;;;;;5072021;28;20207;-62
2022/09/28 04:03:19;;;;;;;5.07;0.90;;;;;;;;;;5069146;28;20584;-61
2022/09/28 04:05:50;;;;;;;3.03;1.13;;;;;;;;;;5074195;28;20213;-64
2022/09/28 04:08:18;;;;;;;1.63;0.80;;;;;;;;;;5064623;28;20203;-64
2022/09/28 04:10:47;;;;;;;1.50;1.10;;;;;;;;;;5059862;28;20209;-63
2022/09/28 04:13:15;;;;;;;3.23;0.90;;;;;;;;;;5056375;28;20231;-63
2022/09/28 04:15:43;;;;;;;3.83;1.20;;;;;;;;;;5045244;28;20200;-63
2022/09/28 04:18:14;;;;;;;2.73;0.80;;;;;;;;;;5046887;28;20208;-63
2022/09/28 04:20:44;;;;;;;2.67;1.70;;;;;;;;;;5056756;28;20199;-63
2022/09/28 04:23:13;;;;;;;5.73;1.30;;;;;;;;;;5044581;28;20278;-63
2022/09/28 04:25:41;;;;;;;5.07;1.57;;;;;;;;;;5049948;28;20195;-63
2022/09/28 04:30:54;;;;;;;2.23;1.10;;;;;;;;;;5048590;28;20203;-63
2022/09/28 04:33:22;;;;;;;3.50;1.20;;;;;;;;;;5067685;28;20590;-63
2022/09/28 04:35:51;;;;;;;1.40;1.00;;;;;;;;;;5067888;28;20674;-64
2022/09/28 04:38:19;;;;;;;2.77;1.17;;;;;;;;;;5070442;28;20207;-63
2022/09/28 04:41:07;;;;;;;4.40;1.03;;;;;;;;;;5067840;28;20199;-63
2022/09/28 04:43:38;;;;;;;3.77;1.53;;;;;;;;;;5067129;28;20597;-63
2022/09/28 04:46:06;;;;;;;4.50;1.07;;;;;;;;;;5067514;28;20223;-63
2022/09/28 04:48:34;;;;;;;6.57;1.20;;;;;;;;;;5068185;28;20206;-63
2022/09/28 04:51:04;;;;;;;1.60;1.17;;;;;;;;;;5068241;28;20532;-63
2022/09/28 04:53:32;;;;;;;3.47;1.10;;;;;;;;;;5066322;28;20262;-63
2022/09/28 04:56:01;;;;;;;2.20;1.40;;;;;;;;;;5056725;28;20231;-63
2022/09/28 04:58:29;;;;;;;4.67;1.03;;;;;;;;;;5059235;28;20657;-63
2022/09/28 05:00:58;;;;;;;2.73;0.83;;;;;;;;;;5074936;28;20206;-62
2022/09/28 05:03:26;;;;;;;1.37;0.97;;;;;;;;;;5067469;28;20211;-62
2022/09/28 05:05:54;;;;;;;0.70;0.70;;;;;;;;;;5070315;28;20198;-62
2022/09/28 05:08:23;;;;;;;1.00;0.80;;;;;;;;;;5071249;28;20206;-62
2022/09/28 05:10:56;;;;;;;3.73;1.13;;;;;;;;;;5071922;28;20198;-62
2022/09/28 05:13:24;;;;;;;2.43;0.90;;;;;;;;;;5073071;28;20226;-62
2022/09/28 05:15:53;;;;;;;0.90;0.90;;;;;;;;;;5061140;28;20686;-62
2022/09/28 05:18:26;;;;;;;2.33;0.83;;;;;;;;;;5072456;28;20203;-62
2022/09/28 05:20:54;;;;;;;2.33;0.90;;;;;;;;;;5059377;28;20203;-62
2022/09/28 05:23:24;;;;;;;0.80;0.80;;;;;;;;;;5072020;28;20222;-61
2022/09/28 05:25:52;;;;;;;1.83;0.80;;;;;;;;;;5059609;28;22003;-62
2022/09/28 05:28:23;;;;;;;1.40;0.90;;;;;;;;;;5045643;28;20199;-62
2022/09/28 05:30:51;;;;;;;1.43;1.03;;;;;;;;;;5057237;28;20566;-62
2022/09/28 05:33:19;;;;;;;0.90;0.70;;;;;;;;;;5053327;28;20230;-63
2022/09/28 05:35:47;;;;;;;2.53;1.00;;;;;;;;;;5058799;28;20199;-62
2022/09/28 05:38:21;;;;;;;1.90;1.00;;;;;;;;;;5050862;28;20267;-63
2022/09/28 05:40:51;;;;;;;2.30;0.80;;;;;;;;;;5052332;28;20297;-63
2022/09/28 05:43:19;;;;;;;3.20;1.10;;;;;;;;;;5053611;28;20698;-63
2022/09/28 05:45:47;;;;;;;1.53;1.00;;;;;;;;;;5052767;28;20206;-63
2022/09/28 05:48:21;;;;;;;3.47;0.97;;;;;;;;;;5050490;28;20206;-63
2022/09/28 05:50:50;;;;;;;0.70;0.67;;;;;;;;;;5058058;28;20647;-63
2022/09/28 05:53:18;;;;;;;5.07;0.87;;;;;;;;;;5057387;28;20586;-63
2022/09/28 05:55:46;;;;;;;2.90;1.07;;;;;;;;;;5056770;28;20568;-63
2022/09/28 05:58:16;;;;;;;2.30;0.90;;;;;;;;;;5047472;28;20637;-63
2022/09/28 06:00:44;;;;;;;3.50;1.10;;;;;;;;;;5051464;28;20214;-63
2022/09/28 06:03:13;;;;;;;2.97;0.90;;;;;;;;;;5060819;28;20207;-63
2022/09/28 06:05:41;;;;;;;2.30;1.10;;;;;;;;;;5068634;28;20194;-63
2022/09/28 06:08:10;;;;;;;1.67;1.20;;;;;;;;;;5064875;28;20264;-63
2022/09/28 06:10:41;;;;;;;3.40;0.93;;;;;;;;;;5061649;28;20207;-63
2022/09/28 06:13:10;;;;;;;1.37;1.10;;;;;;;;;;5059344;28;20674;-65
2022/09/28 06:15:42;;;;;;;2.97;1.00;;;;;;;;;;5057417;28;20733;-63
2022/09/28 06:18:10;;;;;;;2.27;1.30;;;;;;;;;;5050613;28;20199;-63
2022/09/28 06:20:40;;;;;;;1.50;1.10;;;;;;;;;;5065106;28;20221;-64
2022/09/28 06:23:08;;;;;;;0.90;0.80;;;;;;;;;;5057585;28;21757;-63
2022/09/28 06:25:36;;;;;;;1.63;1.10;;;;;;;;;;5065570;28;20199;-64
2022/09/28 06:28:04;;;;;;;1.57;1.00;;;;;;;;;;5066377;28;20202;-63
2022/09/28 06:30:34;;;;;;;2.50;1.10;;;;;;;;;;5062845;28;20202;-63
2022/09/28 06:33:04;;;;;;;1.47;0.90;;;;;;;;;;5076925;28;20225;-66
2022/09/28 06:35:32;;;;;;;2.80;1.07;;;;;;;;;;5069083;28;20224;-64
2022/09/28 06:38:01;;;;;;;1.00;0.83;;;;;;;;;;5065156;28;20209;-64
2022/09/28 06:40:28;;;;;;;3.60;1.20;;;;;;;;;;5072963;28;20206;-64
2022/09/28 06:42:57;;;;;;;1.50;0.90;;;;;;;;;;5064639;28;20251;-64
2022/09/28 06:45:26;;;;;;;1.70;0.87;;;;;;;;;;5067913;28;20202;-64
2022/09/28 06:47:55;;;;;;;1.40;0.97;;;;;;;;;;5068573;28;20202;-65
2022/09/28 06:50:25;;;;;;;1.73;1.03;;;;;;;;;;5060443;28;20203;-66
2022/09/28 06:52:53;;;;;;;4.53;1.07;;;;;;;;;;5076490;28;20194;-67
2022/09/28 06:55:21;;;;;;;2.77;0.83;;;;;;;;;;5068074;28;20234;-66
2022/09/28 06:57:57;;;;;;;2.10;1.07;;;;;;;;;;5064360;28;20659;-66
2022/09/28 07:00:25;;;;;;;4.73;0.90;;;;;;;;;;5057649;28;20289;-66
2022/09/28 07:02:53;;;;;;;1.33;0.80;;;;;;;;;;5064819;28;20195;-66
2022/09/28 07:05:26;;;;;;;3.50;1.10;;;;;;;;;;5057464;28;20214;-66
2022/09/28 07:07:55;;;;;;;1.33;1.23;;;;;;;;;;5068289;28;20202;-66
2022/09/28 07:10:24;;;;;;;4.90;1.33;;;;;;;;;;5068134;28;20229;-66
2022/09/28 07:12:52;;;;;;;1.27;1.07;;;;;;;;;;5066405;28;20201;-66
2022/09/28 07:15:20;;;;;;;1.70;1.07;;;;;;;;;;5057187;28;20219;-66
2022/09/28 07:17:48;;;;;;;5.97;1.47;;;;;;;;;;5066629;28;20207;-66
2022/09/28 07:20:29;;;;;;;3.17;1.20;;;;;;;;;;5068200;28;20209;-67
2022/09/28 07:22:59;;;;;;;2.60;1.00;;;;;;;;;;5075894;28;20206;-66
2022/09/28 07:25:44;;;;;;;3.73;1.23;;;;;;;;;;5068894;28;20262;-66
2022/09/28 07:28:12;;;;;;;3.70;1.17;;;;;;;;;;5056673;28;20719;-66
2022/09/28 07:30:41;;;;;;;1.70;1.07;;;;;;;;;;5067055;28;20544;-66
2022/09/28 07:33:11;;;;;;;8.10;2.17;;;;;;;;;;5077212;28;20206;-66
2022/09/28 07:35:40;;;;;;;2.60;0.80;;;;;;;;;;5074510;28;20711;-66
2022/09/28 07:38:10;;;;;;;5.23;1.10;;;;;;;;;;5072036;28;20202;-66
2022/09/28 07:43:24;;;;;;;1.00;0.90;;;;;;;;;;5069726;28;20247;-66
2022/09/28 07:45:52;;;;;;;5.60;1.10;;;;;;;;;;5061403;28;20195;-66
2022/09/28 07:48:21;;;;;;;1.20;1.10;;;;;;;;;;5069141;28;20229;-66
2022/09/28 07:50:50;;;;;;;3.67;1.13;;;;;;;;;;5074073;28;20202;-66
2022/09/28 07:53:20;;;;;;;2.30;0.80;;;;;;;;;;5069170;28;20276;-66
2022/09/28 07:55:50;;;;;;;2.10;1.00;;;;;;;;;;5074053;28;20241;-66
2022/09/28 07:58:19;;;;;;;4.17;1.50;;;;;;;;;;5063263;28;20213;-66
2022/09/28 08:00:47;;;;;;;2.97;1.07;;;;;;;;;;5072008;28;20198;-66
2022/09/28 08:03:16;;;;;;;2.43;1.20;;;;;;;;;;5062855;28;20237;-66
2022/09/28 08:05:45;;;;;;;1.33;0.90;;;;;;;;;;5068503;28;20199;-66
2022/09/28 08:08:13;;;;;;;2.57;1.20;;;;;;;;;;5068506;28;20570;-66
2022/09/28 08:10:43;;;;;;;1.30;1.00;;;;;;;;;;5071953;28;20224;-66
2022/09/28 08:13:15;;;;;;;2.40;1.17;;;;;;;;;;5079535;28;20206;-66
2022/09/28 08:15:43;;;;;;;3.70;1.07;;;;;;;;;;5068250;28;20592;-66
2022/09/28 08:18:11;;;;;;;4.10;1.60;;;;;;;;;;5068189;28;20577;-66
2022/09/28 08:23:24;;;;;;;1.87;1.33;;;;;;;;;;5062430;28;20226;-66
2022/09/28 08:25:54;;;;;;;5.00;1.33;;;;;;;;;;5071364;28;20190;-66
2022/09/28 08:28:22;;;;;;;2.83;1.30;;;;;;;;;;5073446;28;20203;-66
2022/09/28 08:30:51;;;;;;;2.97;1.50;;;;;;;;;;5063095;28;20203;-66
2022/09/28 08:33:20;;;;;;;3.50;1.00;;;;;;;;;;5071354;28;20219;-66
2022/09/28 08:35:54;;;;;;;3.40;1.20;;;;;;;;;;5070851;28;20232;-66
2022/09/28 08:38:22;;;;;;;3.00;1.60;;;;;;;;;;5063542;28;20212;-66
2022/09/28 08:40:56;;;;;;;4.47;1.23;;;;;;;;;;5067516;28;20203;-65
2022/09/28 08:43:34;;;;;;;2.00;1.60;;;;;;;;;;5071813;28;20698;-66
2022/09/28 08:46:02;;;;;;;1.33;1.00;;;;;;;;;;5061033;28;20197;-66
2022/09/28 08:51:35;;;;;;;1.00;0.90;;;;;;;;;;5064803;28;20217;-66
2022/09/28 08:54:04;;;;;;;1.80;0.67;;;;;;;;;;5052348;28;20215;-66
2022/09/28 08:56:41;;;;;;;4.20;1.00;;;;;;;;;;5066692;28;20693;-66
2022/09/28 08:59:12;;;;;;;3.10;1.10;;;;;;;;;;5064036;28;20214;-66
2022/09/28 09:01:44;;;;;;;4.30;0.80;;;;;;;;;;5062930;28;20218;-66
2022/09/28 09:04:12;;;;;;;1.20;1.03;;;;;;;;;;5073733;28;20251;-66
2022/09/28 09:06:53;;;;;;;1.87;0.70;;;;;;;;;;5070193;28;20679;-66
2022/09/28 09:09:25;;;;;;;1.90;0.80;;;;;;;;;;5070258;28;20205;-66
2022/09/28 09:12:00;;;;;;;3.97;0.77;;;;;;;;;;5068661;28;20560;-66
2022/09/28 09:14:38;;;;;;;1.67;0.70;;;;;;;;;;5063295;28;20225;-66
2022/09/28 09:17:13;;;;;;;2.67;1.00;;;;;;;;;;5071661;28;20222;-66
2022/09/28 09:19:47;;;;;;;3.00;0.73;;;;;;;;;;5064253;28;20204;-66
2022/09/28 09:22:16;;;;;;;1.07;0.77;;;;;;;;;;5062895;28;20199;-66
2022/09/28 09:24:49;;;;;;;3.23;1.10;;;;;;;;;;5066316;28;20218;-66
2022/09/28 09:27:28;;;;;;;0.70;0.70;;;;;;;;;;5059525;28;20191;-66
2022/09/28 09:30:05;;;;;;;6.07;1.00;;;;;;;;;;5077656;28;20202;-66
2022/09/28 09:32:43;;;;;;;0.77;0.70;;;;;;;;;;5066893;28;20213;-66
2022/09/28 09:35:21;;;;;;;2.00;0.83;;;;;;;;;;5059463;28;20562;-66
2022/09/28 09:38:10;;;;;;;3.10;1.03;;;;;;;;;;5062177;28;20279;-66
2022/09/28 09:40:45;;;;;;;3.37;1.13;;;;;;;;;;5050786;28;20198;-66
2022/09/28 09:43:33;;;;;;;0.87;0.73;;;;;;;;;;5066811;28;20252;-66
2022/09/28 09:46:10;;;;;;;2.43;1.03;;;;;;;;;;5066150;28;20564;-66
2022/09/28 09:48:40;;;;;;;4.87;1.00;;;;;;;;;;5070565;28;20202;-66
2022/09/28 09:51:13;;;;;;;1.33;0.70;;;;;;;;;;5069438;28;20199;-66
2022/09/28 09:53:44;;;;;;;3.03;1.13;;;;;;;;;;5066104;28;20223;-66
2022/09/28 09:56:14;;;;;;;0.87;0.80;;;;;;;;;;5066142;28;20230;-66
2022/09/28 09:58:46;;;;;;;1.53;0.70;;;;;;;;;;5063186;28;20196;-66
2022/09/28 10:01:17;;;;;;;5.27;1.20;;;;;;;;;;5068744;28;20203;-66
2022/09/28 10:03:47;;;;;;;4.53;1.10;;;;;;;;;;5063260;28;20224;-66
2022/09/28 10:06:16;;;;;;;3.40;0.87;;;;;;;;;;5068242;28;20227;-66
2022/09/28 10:08:48;;;;;;;3.97;1.67;;;;;;;;;;5066218;28;20214;-66
2022/09/28 10:11:19;;;;;;;1.13;0.70;;;;;;;;;;5066206;28;20212;-65
2022/09/28 10:13:48;;;;;;;1.70;0.90;;;;;;;;;;5077255;28;20268;-65
2022/09/28 10:16:17;;;;;;;3.87;0.97;;;;;;;;;;5061131;28;20712;-65
2022/09/28 10:18:46;;;;;;;2.63;1.33;;;;;;;;;;5051652;28;20684;-65
2022/09/28 10:21:15;;;;;;;1.70;0.87;;;;;;;;;;5053112;28;20207;-65
2022/09/28 10:23:43;;;;;;;3.00;1.80;;;;;;;;;;5059398;28;20234;-66
2022/09/28 10:26:13;;;;;;;2.90;1.30;;;;;;;;;;5058174;28;20206;-68
2022/09/28 10:28:45;;;;;;;5.90;2.20;;;;;;;;;;5058652;28;20206;-67
2022/09/28 10:31:33;;;;;;;1.03;0.83;;;;;;;;;;5068714;28;20198;-67
2022/09/28 10:34:03;;;;;;;2.30;1.07;;;;;;;;;;5068894;28;20221;-66
2022/09/28 10:36:37;;;;;;;3.63;1.30;;;;;;;;;;5077048;28;20222;-67
2022/09/28 10:39:05;;;;;;;3.67;1.40;;;;;;;;;;5068458;28;20717;-67
2022/09/28 10:41:33;;;;;;;3.13;1.30;;;;;;;;;;5060088;28;20203;-67
2022/09/28 10:44:09;;;;;;;5.00;1.50;;;;;;;;;;5063211;28;20243;-66
2022/09/28 10:46:38;;;;;;;1.47;1.37;;;;;;;;;;5073426;28;20253;-66
2022/09/28 10:49:13;;;;;;;2.67;1.30;;;;;;;;;;5062390;28;20206;-65
2022/09/28 10:51:42;;;;;;;2.03;1.20;;;;;;;;;;5063343;28;20649;-66
2022/09/28 10:54:14;;;;;;;5.53;1.20;;;;;;;;;;5066464;28;20234;-66
2022/09/28 10:56:42;;;;;;;13.57;5.83;;;;;;;;;;5064195;28;20713;-66
2022/09/28 10:59:25;;;;;;;11.50;6.90;;;;;;;;;;5065059;28;20203;-66
2022/09/28 11:01:54;;;;;;;5.50;4.23;;;;;;;;;;5056842;28;20203;-65
2022/09/28 11:04:25;;;;;;;5.73;2.73;;;;;;;;;;5070891;28;20226;-64
2022/09/28 11:06:58;;;;;;;4.17;1.73;;;;;;;;;;5067095;28;20195;-65
2022/09/28 11:09:32;;;;;;;3.90;2.30;;;;;;;;;;5075661;28;20260;-66
2022/09/28 11:12:01;;;;;;;2.07;1.47;;;;;;;;;;5072365;28;20218;-66
2022/09/28 11:14:34;;;;;;;3.53;1.30;;;;;;;;;;5060357;28;20727;-65
2022/09/28 11:17:15;;;;;;;0.60;0.60;;;;;;;;;;5064584;28;20229;-64
2022/09/28 11:19:44;;;;;;;1.50;0.67;;;;;;;;;;5061902;28;20825;-63
2022/09/28 11:22:23;;;;;;;1.73;0.70;;;;;;;;;;5066634;28;20205;-63
2022/09/28 11:24:51;;;;;;;1.23;0.60;;;;;;;;;;5063525;28;20218;-63
2022/09/28 11:27:20;;;;;;;0.83;0.60;;;;;;;;;;5064855;28;20668;-63
2022/09/28 11:29:55;;;;;;;2.57;0.83;;;;;;;;;;5065276;28;20562;-63
2022/09/28 11:32:24;;;;;;;2.37;0.70;;;;;;;;;;5064906;28;20202;-63
2022/09/28 11:34:56;;;;;;;1.53;0.77;;;;;;;;;;5064481;28;20218;-63
2022/09/28 11:37:44;;;;;;;2.13;0.90;;;;;;;;;;5063616;28;20308;-63
2022/09/28 11:40:17;;;;;;;0.50;0.50;;;;;;;;;;5064737;28;20203;-64
2022/09/28 11:42:52;;;;;;;0.70;0.70;;;;;;;;;;5064942;28;20199;-64
2022/09/28 11:45:28;;;;;;;0.73;0.60;;;;;;;;;;5054007;28;20199;-64
2022/09/28 11:47:58;;;;;;;1.07;0.80;;;;;;;;;;5070903;28;20198;-63
2022/09/28 11:50:30;;;;;;;1.27;0.60;;;;;;;;;;5063818;28;20207;-64
2022/09/28 11:53:04;;;;;;;1.60;1.00;;;;;;;;;;5065156;28;20573;-64
2022/09/28 11:55:34;;;;;;;0.60;0.60;;;;;;;;;;5075293;28;20596;-64
2022/09/28 11:58:06;;;;;;;0.70;0.70;;;;;;;;;;5073600;28;20237;-63
2022/09/28 12:00:37;;;;;;;1.57;0.60;;;;;;;;;;5057251;28;20198;-64
2022/09/28 12:03:08;;;;;;;1.50;0.67;;;;;;;;;;5056154;28;20336;-63
2022/09/28 12:05:40;;;;;;;1.00;0.63;;;;;;;;;;5051464;28;20203;-64
2022/09/28 12:08:12;;;;;;;2.13;0.60;;;;;;;;;;5064639;28;20203;-63
2022/09/28 12:10:42;;;;;;;1.70;0.83;;;;;;;;;;5064585;28;20555;-63
2022/09/28 12:13:14;;;;;;;4.23;1.00;;;;;;;;;;5064686;28;20207;-63
2022/09/28 12:15:44;;;;;;;1.07;0.70;;;;;;;;;;5059422;28;20202;-63
2022/09/28 12:18:37;;;;;;;1.47;0.50;;;;;;;;;;5057693;28;20360;-64
2022/09/28 12:21:14;;;;;;;0.60;0.40;;;;;;;;;;5063267;28;20569;-63
2022/09/28 12:23:43;;;;;;;2.90;0.50;;;;;;;;;;5065352;28;20223;-63
2022/09/28 12:26:17;;;;;;;1.73;0.57;;;;;;;;;;5068207;28;20209;-63
2022/09/28 12:28:47;;;;;;;1.43;0.40;;;;;;;;;;5073607;28;20205;-64
2022/09/28 12:31:17;;;;;;;2.83;0.53;;;;;;;;;;5078497;28;20203;-64
2022/09/28 12:33:46;;;;;;;2.17;0.40;;;;;;;;;;5079355;28;20713;-63
2022/09/28 12:36:24;;;;;;;1.87;0.67;;;;;;;;;;5058256;28;20673;-63
2022/09/28 12:39:00;;;;;;;1.80;0.70;;;;;;;;;;5058051;28;20229;-64
2022/09/28 12:41:52;;;;;;;1.07;0.47;;;;;;;;;;5054244;28;20214;-64
2022/09/28 12:44:26;;;;;;;2.23;0.77;;;;;;;;;;5051296;28;20218;-64
2022/09/28 12:47:08;;;;;;;1.80;0.70;;;;;;;;;;5065694;28;20198;-64
2022/09/28 12:49:49;;;;;;;0.80;0.60;;;;;;;;;;5057485;28;20278;-64
2022/09/28 12:52:46;;;;;;;1.43;0.70;;;;;;;;;;5050048;28;20199;-64
2022/09/28 12:55:19;;;;;;;1.60;0.53;;;;;;;;;;5055730;28;20239;-64
2022/09/28 12:57:53;;;;;;;0.30;0.30;;;;;;;;;;5059580;28;20218;-64
2022/09/28 13:00:22;;;;;;;1.90;0.63;;;;;;;;;;5057777;28;20203;-64
2022/09/28 13:03:01;;;;;;;2.33;0.83;;;;;;;;;;5059164;28;20199;-64
2022/09/28 13:05:44;;;;;;;1.93;1.60;;;;;;;;;;5056823;28;20215;-63
2022/09/28 13:08:19;;;;;;;1.17;1.10;;;;;;;;;;5056682;28;20198;-64
2022/09/28 13:10:51;;;;;;;2.37;0.90;;;;;;;;;;5053874;28;20200;-64
2022/09/28 13:13:24;;;;;;;1.53;1.00;;;;;;;;;;5058786;28;20226;-64
2022/09/28 13:15:55;;;;;;;3.00;0.83;;;;;;;;;;5059208;28;20336;-64
2022/09/28 13:18:26;;;;;;;2.10;0.90;;;;;;;;;;5058381;28;20222;-64
2022/09/28 13:21:00;;;;;;;4.37;1.20;;;;;;;;;;5062937;28;20206;-64
2022/09/28 13:23:31;;;;;;;2.53;0.97;;;;;;;;;;5068676;28;20223;-65
2022/09/28 13:26:02;;;;;;;3.87;0.90;;;;;;;;;;5070347;28;20209;-64
2022/09/28 13:28:31;;;;;;;1.37;0.83;;;;;;;;;;5069441;28;20198;-64
2022/09/28 13:31:01;;;;;;;5.40;0.80;;;;;;;;;;5066920;28;20203;-64
2022/09/28 13:33:32;;;;;;;4.20;0.80;;;;;;;;;;5059302;28;20246;-64
2022/09/28 13:36:01;;;;;;;1.33;0.97;;;;;;;;;;5054482;28;20661;-64
2022/09/28 13:38:43;;;;;;;1.33;0.70;;;;;;;;;;5059627;28;20215;-64
2022/09/28 13:41:15;;;;;;;1.83;0.57;;;;;;;;;;5053695;28;20218;-64
2022/09/28 13:43:52;;;;;;;1.80;0.90;;;;;;;;;;5066044;28;20222;-64
2022/09/28 13:46:22;;;;;;;0.90;0.60;;;;;;;;;;5062985;28;20677;-64
2022/09/28 13:48:57;;;;;;;1.67;0.70;;;;;;;;;;5073750;28;20534;-64
2022/09/28 13:51:34;;;;;;;0.93;0.60;;;;;;;;;;5074038;28;20208;-64
2022/09/28 13:54:07;;;;;;;0.73;0.63;;;;;;;;;;5063511;28;20213;-64
2022/09/28 13:56:37;;;;;;;0.60;0.60;;;;;;;;;;5068706;28;20242;-64
2022/09/28 13:59:12;;;;;;;0.37;0.37;;;;;;;;;;5069908;28;20226;-64
2022/09/28 14:01:41;;;;;;;0.53;0.50;;;;;;;;;;5065462;28;20205;-64
2022/09/28 14:04:15;;;;;;;1.17;0.60;;;;;;;;;;5064970;28;20228;-64
2022/09/28 14:06:49;;;;;;;1.47;0.53;;;;;;;;;;5067450;28;20202;-64
2022/09/28 14:09:38;;;;;;;1.53;0.60;;;;;;;;;;5068758;28;20566;-64
2022/09/28 14:12:21;;;;;;;0.93;0.60;;;;;;;;;;5062165;28;20198;-64
2022/09/28 14:14:50;;;;;;;0.50;0.50;;;;;;;;;;5066928;28;20226;-64
2022/09/28 14:17:42;;;;;;;4.23;0.87;;;;;;;;;;5056203;28;20203;-64
2022/09/28 14:20:13;;;;;;;6.63;4.60;;;;;;;;;;5046796;28;20240;-64
2022/09/28 14:22:49;;;;;;;3.17;1.77;;;;;;;;;;5076641;28;20207;-64
2022/09/28 14:25:22;;;;;;;1.33;1.23;;;;;;;;;;5060194;28;20222;-64
2022/09/28 14:28:00;;;;;;;1.13;0.90;;;;;;;;;;5065708;28;20209;-64
2022/09/28 14:30:34;;;;;;;0.70;0.63;;;;;;;;;;5071812;28;20206;-64
2022/09/28 14:33:15;;;;;;;1.97;0.87;;;;;;;;;;5066298;28;20205;-64
2022/09/28 14:35:46;;;;;;;2.27;0.60;;;;;;;;;;5074012;28;20202;-64
2022/09/28 14:41:09;;;;;;;4.83;1.60;;;;;;;;;;5067087;28;20213;-66
2022/09/28 14:43:38;;;;;;;3.70;1.80;;;;;;;;;;5062878;28;20705;-67
2022/09/28 14:46:23;;;;;;;3.57;2.00;;;;;;;;;;5056236;28;20651;-66
2022/09/28 14:48:52;;;;;;;1.47;1.23;;;;;;;;;;5059021;28;20195;-67
2022/09/28 14:51:39;;;;;;;3.53;2.20;;;;;;;;;;5056040;28;20211;-66
2022/09/28 14:54:15;;;;;;;4.13;1.70;;;;;;;;;;5063433;28;20291;-66
2022/09/28 14:56:49;;;;;;;3.30;1.60;;;;;;;;;;5062961;28;20308;-67
2022/09/28 14:59:18;;;;;;;3.17;1.50;;;;;;;;;;5063091;28;20221;-66
2022/09/28 15:01:48;;;;;;;2.53;1.00;;;;;;;;;;5063318;28;20239;-67
2022/09/28 15:04:16;;;;;;;3.90;2.30;;;;;;;;;;5054928;28;20693;-67
2022/09/28 15:06:45;;;;;;;3.77;2.27;;;;;;;;;;5069310;28;20199;-66
2022/09/28 15:09:26;;;;;;;4.43;2.10;;;;;;;;;;5075361;28;20219;-66
2022/09/28 15:12:00;;;;;;;2.73;1.97;;;;;;;;;;5068061;28;20198;-66
2022/09/28 15:14:30;;;;;;;1.57;1.20;;;;;;;;;;5071969;28;20262;-66
2022/09/28 15:17:02;;;;;;;3.50;2.07;;;;;;;;;;5056565;28;20214;-67
2022/09/28 15:19:32;;;;;;;4.27;2.00;;;;;;;;;;5063006;28;20214;-63
2022/09/28 15:22:00;;;;;;;3.73;2.13;;;;;;;;;;5063492;28;20539;-63
2022/09/28 15:24:30;;;;;;;1.63;1.30;;;;;;;;;;5067795;28;20225;-63